sensor_id;sensor_type;location;lat;lon;timestamp;P1;durP1;ratioP1;P2;durP2;ratioP2
49828;SDS011;35723;51.194;5.112;2023-07-13T00:01:19;14.85;;;2.45;;
49828;SDS011;35723;51.194;5.112;2023-07-13T00:03:47;12.43;;;2.30;;
49828;SDS011;35723;51.194;5.112;2023-07-13T00:06:13;10.27;;;1.85;;
49828;SDS011;35723;51.194;5.112;2023-07-13T00:08:39;10.25;;;2.20;;
49828;SDS011;35723;51.194;5.112;2023-07-13T00:11:04;10.40;;;2.30;;
49828;SDS011;35723;51.194;5.112;2023-07-13T00:13:31;11.52;;;1.98;;
49828;SDS011;35723;51.194;5.112;2023-07-13T00:15:58;9.98;;;1.85;;
49828;SDS011;35723;51.194;5.112;2023-07-13T00:18:24;11.70;;;1.90;;
49828;SDS011;35723;51.194;5.112;2023-07-13T00:20:49;13.00;;;2.10;;
49828;SDS011;35723;51.194;5.112;2023-07-13T00:23:15;13.95;;;2.42;;
49828;SDS011;35723;51.194;5.112;2023-07-13T00:25:42;13.00;;;2.38;;
49828;SDS011;35723;51.194;5.112;2023-07-13T00:28:08;12.23;;;2.47;;
49828;SDS011;35723;51.194;5.112;2023-07-13T00:30:33;10.90;;;2.13;;
49828;SDS011;35723;51.194;5.112;2023-07-13T00:32:59;10.88;;;2.20;;
49828;SDS011;35723;51.194;5.112;2023-07-13T00:35:26;9.95;;;2.25;;
49828;SDS011;35723;51.194;5.112;2023-07-13T00:37:55;10.18;;;2.20;;
49828;SDS011;35723;51.194;5.112;2023-07-13T00:40:21;10.52;;;2.38;;
49828;SDS011;35723;51.194;5.112;2023-07-13T00:42:47;15.23;;;2.20;;
49828;SDS011;35723;51.194;5.112;2023-07-13T00:47:38;10.93;;;2.10;;
49828;SDS011;35723;51.194;5.112;2023-07-13T00:50:06;15.45;;;2.10;;
49828;SDS011;35723;51.194;5.112;2023-07-13T00:52:35;10.18;;;2.22;;
49828;SDS011;35723;51.194;5.112;2023-07-13T00:55:03;15.93;;;2.40;;
49828;SDS011;35723;51.194;5.112;2023-07-13T00:57:29;11.50;;;2.25;;
49828;SDS011;35723;51.194;5.112;2023-07-13T00:59:57;10.00;;;2.35;;
49828;SDS011;35723;51.194;5.112;2023-07-13T01:02:31;13.00;;;2.30;;
49828;SDS011;35723;51.194;5.112;2023-07-13T01:04:58;12.65;;;2.40;;
49828;SDS011;35723;51.194;5.112;2023-07-13T01:07:26;15.55;;;2.28;;
49828;SDS011;35723;51.194;5.112;2023-07-13T01:09:52;10.65;;;2.20;;
49828;SDS011;35723;51.194;5.112;2023-07-13T01:12:17;9.23;;;2.30;;
49828;SDS011;35723;51.194;5.112;2023-07-13T01:14:43;13.55;;;2.30;;
49828;SDS011;35723;51.194;5.112;2023-07-13T01:17:10;11.45;;;2.35;;
49828;SDS011;35723;51.194;5.112;2023-07-13T01:19:37;14.73;;;2.40;;
49828;SDS011;35723;51.194;5.112;2023-07-13T01:22:06;11.88;;;2.20;;
49828;SDS011;35723;51.194;5.112;2023-07-13T01:24:37;11.68;;;2.53;;
49828;SDS011;35723;51.194;5.112;2023-07-13T01:27:05;12.80;;;2.50;;
49828;SDS011;35723;51.194;5.112;2023-07-13T01:29:33;12.57;;;2.40;;
49828;SDS011;35723;51.194;5.112;2023-07-13T01:31:59;15.35;;;2.63;;
49828;SDS011;35723;51.194;5.112;2023-07-13T01:34:26;13.60;;;2.20;;
49828;SDS011;35723;51.194;5.112;2023-07-13T01:36:52;9.60;;;2.30;;
49828;SDS011;35723;51.194;5.112;2023-07-13T01:39:19;11.45;;;2.58;;
49828;SDS011;35723;51.194;5.112;2023-07-13T01:41:48;12.15;;;2.35;;
49828;SDS011;35723;51.194;5.112;2023-07-13T01:44:14;13.18;;;2.45;;
49828;SDS011;35723;51.194;5.112;2023-07-13T01:46:40;10.82;;;2.28;;
49828;SDS011;35723;51.194;5.112;2023-07-13T01:49:05;12.57;;;2.38;;
49828;SDS011;35723;51.194;5.112;2023-07-13T01:51:31;11.77;;;2.00;;
49828;SDS011;35723;51.194;5.112;2023-07-13T01:53:57;11.23;;;2.42;;
49828;SDS011;35723;51.194;5.112;2023-07-13T01:56:22;11.77;;;2.50;;
49828;SDS011;35723;51.194;5.112;2023-07-13T01:58:48;14.18;;;2.50;;
49828;SDS011;35723;51.194;5.112;2023-07-13T02:01:14;11.25;;;2.50;;
49828;SDS011;35723;51.194;5.112;2023-07-13T02:03:40;13.27;;;2.25;;
49828;SDS011;35723;51.194;5.112;2023-07-13T02:06:05;12.57;;;2.40;;
49828;SDS011;35723;51.194;5.112;2023-07-13T02:08:32;13.23;;;2.65;;
49828;SDS011;35723;51.194;5.112;2023-07-13T02:10:57;10.25;;;2.40;;
49828;SDS011;35723;51.194;5.112;2023-07-13T02:13:23;9.35;;;2.35;;
49828;SDS011;35723;51.194;5.112;2023-07-13T02:15:52;10.95;;;2.30;;
49828;SDS011;35723;51.194;5.112;2023-07-13T02:18:18;10.77;;;2.20;;
49828;SDS011;35723;51.194;5.112;2023-07-13T02:20:43;14.85;;;2.70;;
49828;SDS011;35723;51.194;5.112;2023-07-13T02:23:10;9.90;;;2.42;;
49828;SDS011;35723;51.194;5.112;2023-07-13T02:25:35;13.70;;;2.85;;
49828;SDS011;35723;51.194;5.112;2023-07-13T02:28:01;13.10;;;2.28;;
49828;SDS011;35723;51.194;5.112;2023-07-13T02:30:27;14.20;;;2.75;;
49828;SDS011;35723;51.194;5.112;2023-07-13T02:32:55;17.38;;;3.28;;
49828;SDS011;35723;51.194;5.112;2023-07-13T02:35:21;13.60;;;2.60;;
49828;SDS011;35723;51.194;5.112;2023-07-13T02:37:47;14.43;;;2.95;;
49828;SDS011;35723;51.194;5.112;2023-07-13T02:40:13;10.52;;;2.13;;
49828;SDS011;35723;51.194;5.112;2023-07-13T02:42:39;13.35;;;2.50;;
49828;SDS011;35723;51.194;5.112;2023-07-13T02:45:05;9.63;;;2.53;;
49828;SDS011;35723;51.194;5.112;2023-07-13T02:47:33;14.50;;;2.47;;
49828;SDS011;35723;51.194;5.112;2023-07-13T02:49:59;15.43;;;2.75;;
49828;SDS011;35723;51.194;5.112;2023-07-13T02:52:25;13.23;;;2.80;;
49828;SDS011;35723;51.194;5.112;2023-07-13T02:54:50;11.90;;;2.60;;
49828;SDS011;35723;51.194;5.112;2023-07-13T02:57:16;12.43;;;2.72;;
49828;SDS011;35723;51.194;5.112;2023-07-13T02:59:42;11.90;;;2.78;;
49828;SDS011;35723;51.194;5.112;2023-07-13T03:02:07;14.98;;;3.03;;
49828;SDS011;35723;51.194;5.112;2023-07-13T03:04:35;14.30;;;2.50;;
49828;SDS011;35723;51.194;5.112;2023-07-13T03:07:01;13.88;;;3.08;;
49828;SDS011;35723;51.194;5.112;2023-07-13T03:09:28;11.25;;;2.70;;
49828;SDS011;35723;51.194;5.112;2023-07-13T03:11:54;16.13;;;2.78;;
49828;SDS011;35723;51.194;5.112;2023-07-13T03:14:21;17.60;;;2.90;;
49828;SDS011;35723;51.194;5.112;2023-07-13T03:16:47;16.02;;;2.97;;
49828;SDS011;35723;51.194;5.112;2023-07-13T03:19:13;16.60;;;3.00;;
49828;SDS011;35723;51.194;5.112;2023-07-13T03:21:39;18.27;;;3.47;;
49828;SDS011;35723;51.194;5.112;2023-07-13T03:24:05;14.25;;;3.10;;
49828;SDS011;35723;51.194;5.112;2023-07-13T03:26:31;17.85;;;2.95;;
49828;SDS011;35723;51.194;5.112;2023-07-13T03:28:56;15.23;;;2.83;;
49828;SDS011;35723;51.194;5.112;2023-07-13T03:31:26;13.88;;;3.15;;
49828;SDS011;35723;51.194;5.112;2023-07-13T03:33:54;10.70;;;2.70;;
49828;SDS011;35723;51.194;5.112;2023-07-13T03:36:22;13.43;;;3.05;;
49828;SDS011;35723;51.194;5.112;2023-07-13T03:38:51;15.48;;;3.35;;
49828;SDS011;35723;51.194;5.112;2023-07-13T03:41:19;20.48;;;3.38;;
49828;SDS011;35723;51.194;5.112;2023-07-13T03:43:45;21.73;;;3.70;;
49828;SDS011;35723;51.194;5.112;2023-07-13T03:46:12;16.17;;;3.50;;
49828;SDS011;35723;51.194;5.112;2023-07-13T03:48:38;17.13;;;3.58;;
49828;SDS011;35723;51.194;5.112;2023-07-13T03:51:05;19.00;;;3.70;;
49828;SDS011;35723;51.194;5.112;2023-07-13T03:53:31;14.48;;;3.03;;
49828;SDS011;35723;51.194;5.112;2023-07-13T03:55:57;17.67;;;4.03;;
49828;SDS011;35723;51.194;5.112;2023-07-13T03:58:33;18.92;;;3.00;;
49828;SDS011;35723;51.194;5.112;2023-07-13T04:01:00;15.48;;;3.53;;
49828;SDS011;35723;51.194;5.112;2023-07-13T04:03:28;17.95;;;3.53;;
49828;SDS011;35723;51.194;5.112;2023-07-13T04:05:57;17.52;;;3.60;;
49828;SDS011;35723;51.194;5.112;2023-07-13T04:08:25;16.08;;;3.70;;
49828;SDS011;35723;51.194;5.112;2023-07-13T04:11:00;15.25;;;3.28;;
49828;SDS011;35723;51.194;5.112;2023-07-13T04:13:28;15.85;;;3.30;;
49828;SDS011;35723;51.194;5.112;2023-07-13T04:15:54;20.85;;;3.42;;
49828;SDS011;35723;51.194;5.112;2023-07-13T04:18:19;18.00;;;3.55;;
49828;SDS011;35723;51.194;5.112;2023-07-13T04:20:46;17.38;;;3.28;;
49828;SDS011;35723;51.194;5.112;2023-07-13T04:23:13;13.18;;;3.08;;
49828;SDS011;35723;51.194;5.112;2023-07-13T04:25:39;16.80;;;2.95;;
49828;SDS011;35723;51.194;5.112;2023-07-13T04:28:08;16.75;;;3.25;;
49828;SDS011;35723;51.194;5.112;2023-07-13T04:30:33;17.42;;;3.38;;
49828;SDS011;35723;51.194;5.112;2023-07-13T04:32:59;13.60;;;3.20;;
49828;SDS011;35723;51.194;5.112;2023-07-13T04:35:25;18.75;;;3.65;;
49828;SDS011;35723;51.194;5.112;2023-07-13T04:37:51;20.15;;;3.50;;
49828;SDS011;35723;51.194;5.112;2023-07-13T04:40:17;16.38;;;3.38;;
49828;SDS011;35723;51.194;5.112;2023-07-13T04:42:44;14.02;;;3.33;;
49828;SDS011;35723;51.194;5.112;2023-07-13T04:45:10;17.67;;;3.45;;
49828;SDS011;35723;51.194;5.112;2023-07-13T04:47:36;16.58;;;3.10;;
49828;SDS011;35723;51.194;5.112;2023-07-13T04:50:02;17.02;;;2.80;;
49828;SDS011;35723;51.194;5.112;2023-07-13T04:52:29;20.75;;;3.58;;
49828;SDS011;35723;51.194;5.112;2023-07-13T04:54:55;16.83;;;3.00;;
49828;SDS011;35723;51.194;5.112;2023-07-13T04:57:20;16.83;;;3.30;;
49828;SDS011;35723;51.194;5.112;2023-07-13T04:59:46;17.15;;;3.03;;
49828;SDS011;35723;51.194;5.112;2023-07-13T05:02:12;19.65;;;3.65;;
49828;SDS011;35723;51.194;5.112;2023-07-13T05:04:37;16.85;;;3.63;;
49828;SDS011;35723;51.194;5.112;2023-07-13T05:07:05;17.92;;;3.60;;
49828;SDS011;35723;51.194;5.112;2023-07-13T05:09:31;24.23;;;4.20;;
49828;SDS011;35723;51.194;5.112;2023-07-13T05:11:57;17.80;;;3.53;;
49828;SDS011;35723;51.194;5.112;2023-07-13T05:14:22;22.73;;;4.05;;
49828;SDS011;35723;51.194;5.112;2023-07-13T05:16:48;23.42;;;4.13;;
49828;SDS011;35723;51.194;5.112;2023-07-13T05:19:14;23.30;;;3.90;;
49828;SDS011;35723;51.194;5.112;2023-07-13T05:21:39;20.25;;;3.47;;
49828;SDS011;35723;51.194;5.112;2023-07-13T05:24:06;21.15;;;3.83;;
49828;SDS011;35723;51.194;5.112;2023-07-13T05:26:32;18.65;;;4.30;;
49828;SDS011;35723;51.194;5.112;2023-07-13T05:28:58;24.90;;;4.47;;
49828;SDS011;35723;51.194;5.112;2023-07-13T05:31:23;22.50;;;4.45;;
49828;SDS011;35723;51.194;5.112;2023-07-13T05:33:49;22.70;;;4.32;;
49828;SDS011;35723;51.194;5.112;2023-07-13T05:36:15;19.25;;;4.07;;
49828;SDS011;35723;51.194;5.112;2023-07-13T05:38:40;16.08;;;3.80;;
49828;SDS011;35723;51.194;5.112;2023-07-13T05:41:06;16.95;;;3.75;;
49828;SDS011;35723;51.194;5.112;2023-07-13T05:43:32;21.98;;;3.97;;
49828;SDS011;35723;51.194;5.112;2023-07-13T05:45:58;18.20;;;4.00;;
49828;SDS011;35723;51.194;5.112;2023-07-13T05:48:24;18.00;;;3.50;;
49828;SDS011;35723;51.194;5.112;2023-07-13T05:50:49;22.00;;;3.92;;
49828;SDS011;35723;51.194;5.112;2023-07-13T05:53:15;14.70;;;3.42;;
49828;SDS011;35723;51.194;5.112;2023-07-13T05:55:41;22.42;;;4.18;;
49828;SDS011;35723;51.194;5.112;2023-07-13T05:58:08;18.88;;;3.63;;
49828;SDS011;35723;51.194;5.112;2023-07-13T06:00:34;17.20;;;4.00;;
49828;SDS011;35723;51.194;5.112;2023-07-13T06:03:00;16.08;;;3.63;;
49828;SDS011;35723;51.194;5.112;2023-07-13T06:05:26;24.33;;;3.80;;
49828;SDS011;35723;51.194;5.112;2023-07-13T06:07:54;18.23;;;3.90;;
49828;SDS011;35723;51.194;5.112;2023-07-13T06:10:20;20.73;;;4.00;;
49828;SDS011;35723;51.194;5.112;2023-07-13T06:12:45;21.25;;;3.72;;
49828;SDS011;35723;51.194;5.112;2023-07-13T06:15:11;23.30;;;4.30;;
49828;SDS011;35723;51.194;5.112;2023-07-13T06:17:37;23.10;;;4.15;;
49828;SDS011;35723;51.194;5.112;2023-07-13T06:20:03;20.58;;;4.10;;
49828;SDS011;35723;51.194;5.112;2023-07-13T06:22:28;19.98;;;3.65;;
49828;SDS011;35723;51.194;5.112;2023-07-13T06:24:54;18.55;;;3.90;;
49828;SDS011;35723;51.194;5.112;2023-07-13T06:27:20;17.83;;;3.85;;
49828;SDS011;35723;51.194;5.112;2023-07-13T06:29:45;22.60;;;4.28;;
49828;SDS011;35723;51.194;5.112;2023-07-13T06:32:11;17.25;;;3.60;;
49828;SDS011;35723;51.194;5.112;2023-07-13T06:34:37;16.45;;;3.55;;
49828;SDS011;35723;51.194;5.112;2023-07-13T06:37:02;25.35;;;4.70;;
49828;SDS011;35723;51.194;5.112;2023-07-13T06:39:28;20.88;;;3.95;;
49828;SDS011;35723;51.194;5.112;2023-07-13T06:41:54;15.75;;;3.60;;
49828;SDS011;35723;51.194;5.112;2023-07-13T06:44:19;23.42;;;4.50;;
49828;SDS011;35723;51.194;5.112;2023-07-13T06:46:45;25.60;;;5.10;;
49828;SDS011;35723;51.194;5.112;2023-07-13T06:49:11;17.85;;;3.78;;
49828;SDS011;35723;51.194;5.112;2023-07-13T06:51:36;16.92;;;3.70;;
49828;SDS011;35723;51.194;5.112;2023-07-13T06:54:02;18.08;;;3.78;;
49828;SDS011;35723;51.194;5.112;2023-07-13T06:56:28;21.45;;;4.03;;
49828;SDS011;35723;51.194;5.112;2023-07-13T06:58:54;14.82;;;3.65;;
49828;SDS011;35723;51.194;5.112;2023-07-13T07:01:20;23.90;;;4.18;;
49828;SDS011;35723;51.194;5.112;2023-07-13T07:03:45;20.58;;;4.22;;
49828;SDS011;35723;51.194;5.112;2023-07-13T07:08:42;21.65;;;4.40;;
49828;SDS011;35723;51.194;5.112;2023-07-13T07:11:08;25.10;;;4.47;;
49828;SDS011;35723;51.194;5.112;2023-07-13T07:13:36;21.92;;;4.25;;
49828;SDS011;35723;51.194;5.112;2023-07-13T07:16:02;21.73;;;4.40;;
49828;SDS011;35723;51.194;5.112;2023-07-13T07:18:27;25.08;;;4.40;;
49828;SDS011;35723;51.194;5.112;2023-07-13T07:20:53;20.58;;;4.35;;
49828;SDS011;35723;51.194;5.112;2023-07-13T07:23:19;22.95;;;4.93;;
49828;SDS011;35723;51.194;5.112;2023-07-13T07:25:44;23.05;;;4.35;;
49828;SDS011;35723;51.194;5.112;2023-07-13T07:28:10;26.25;;;4.75;;
49828;SDS011;35723;51.194;5.112;2023-07-13T07:30:41;20.83;;;4.43;;
49828;SDS011;35723;51.194;5.112;2023-07-13T07:33:08;22.33;;;4.75;;
49828;SDS011;35723;51.194;5.112;2023-07-13T07:35:34;22.17;;;4.30;;
49828;SDS011;35723;51.194;5.112;2023-07-13T07:37:59;20.42;;;4.72;;
49828;SDS011;35723;51.194;5.112;2023-07-13T07:40:25;25.75;;;5.22;;
49828;SDS011;35723;51.194;5.112;2023-07-13T07:42:51;20.88;;;4.32;;
49828;SDS011;35723;51.194;5.112;2023-07-13T07:45:17;23.08;;;4.90;;
49828;SDS011;35723;51.194;5.112;2023-07-13T07:47:43;19.48;;;4.65;;
49828;SDS011;35723;51.194;5.112;2023-07-13T07:50:09;21.75;;;4.65;;
49828;SDS011;35723;51.194;5.112;2023-07-13T07:52:35;25.13;;;4.75;;
49828;SDS011;35723;51.194;5.112;2023-07-13T07:55:01;17.40;;;4.47;;
49828;SDS011;35723;51.194;5.112;2023-07-13T07:57:26;27.23;;;5.13;;
49828;SDS011;35723;51.194;5.112;2023-07-13T07:59:52;20.42;;;4.07;;
49828;SDS011;35723;51.194;5.112;2023-07-13T08:02:17;20.42;;;4.32;;
49828;SDS011;35723;51.194;5.112;2023-07-13T08:04:43;19.08;;;4.20;;
49828;SDS011;35723;51.194;5.112;2023-07-13T08:07:09;17.98;;;4.40;;
49828;SDS011;35723;51.194;5.112;2023-07-13T08:09:34;19.48;;;4.32;;
49828;SDS011;35723;51.194;5.112;2023-07-13T08:12:00;23.27;;;4.97;;
49828;SDS011;35723;51.194;5.112;2023-07-13T08:14:26;25.80;;;4.95;;
49828;SDS011;35723;51.194;5.112;2023-07-13T08:16:51;24.67;;;5.13;;
49828;SDS011;35723;51.194;5.112;2023-07-13T08:19:18;19.40;;;4.70;;
49828;SDS011;35723;51.194;5.112;2023-07-13T08:21:44;21.02;;;4.88;;
49828;SDS011;35723;51.194;5.112;2023-07-13T08:24:10;21.17;;;4.35;;
49828;SDS011;35723;51.194;5.112;2023-07-13T08:26:35;19.13;;;4.30;;
49828;SDS011;35723;51.194;5.112;2023-07-13T08:29:01;17.98;;;4.32;;
49828;SDS011;35723;51.194;5.112;2023-07-13T08:31:28;23.20;;;4.40;;
49828;SDS011;35723;51.194;5.112;2023-07-13T08:33:53;18.95;;;4.25;;
49828;SDS011;35723;51.194;5.112;2023-07-13T08:36:19;16.75;;;3.83;;
49828;SDS011;35723;51.194;5.112;2023-07-13T08:38:45;15.15;;;3.90;;
49828;SDS011;35723;51.194;5.112;2023-07-13T08:41:15;17.90;;;4.22;;
49828;SDS011;35723;51.194;5.112;2023-07-13T08:43:47;20.20;;;3.63;;
49828;SDS011;35723;51.194;5.112;2023-07-13T08:46:35;16.88;;;3.80;;
49828;SDS011;35723;51.194;5.112;2023-07-13T08:49:05;22.00;;;4.13;;
49828;SDS011;35723;51.194;5.112;2023-07-13T08:54:32;20.17;;;4.28;;
49828;SDS011;35723;51.194;5.112;2023-07-13T08:57:16;16.27;;;3.95;;
49828;SDS011;35723;51.194;5.112;2023-07-13T08:59:49;15.48;;;3.80;;
49828;SDS011;35723;51.194;5.112;2023-07-13T09:02:24;15.75;;;3.33;;
49828;SDS011;35723;51.194;5.112;2023-07-13T09:04:58;16.52;;;3.67;;
49828;SDS011;35723;51.194;5.112;2023-07-13T09:10:49;17.35;;;3.70;;
49828;SDS011;35723;51.194;5.112;2023-07-13T09:15:57;21.25;;;3.80;;
49828;SDS011;35723;51.194;5.112;2023-07-13T09:18:35;16.50;;;3.35;;
49828;SDS011;35723;51.194;5.112;2023-07-13T09:23:39;17.27;;;3.30;;
49828;SDS011;35723;51.194;5.112;2023-07-13T09:26:11;20.02;;;3.30;;
49828;SDS011;35723;51.194;5.112;2023-07-13T09:28:45;14.80;;;2.85;;
49828;SDS011;35723;51.194;5.112;2023-07-13T09:31:17;23.00;;;3.55;;
49828;SDS011;35723;51.194;5.112;2023-07-13T09:34:08;11.48;;;2.70;;
49828;SDS011;35723;51.194;5.112;2023-07-13T09:36:35;13.23;;;2.78;;
49828;SDS011;35723;51.194;5.112;2023-07-13T09:39:05;13.98;;;3.03;;
49828;SDS011;35723;51.194;5.112;2023-07-13T09:44:36;13.70;;;2.83;;
49828;SDS011;35723;51.194;5.112;2023-07-13T09:47:03;11.85;;;2.85;;
49828;SDS011;35723;51.194;5.112;2023-07-13T09:49:44;9.13;;;2.55;;
49828;SDS011;35723;51.194;5.112;2023-07-13T09:52:12;13.38;;;2.80;;
49828;SDS011;35723;51.194;5.112;2023-07-13T09:54:43;13.00;;;2.92;;
49828;SDS011;35723;51.194;5.112;2023-07-13T09:57:23;15.35;;;3.15;;
49828;SDS011;35723;51.194;5.112;2023-07-13T09:59:51;13.85;;;2.88;;
49828;SDS011;35723;51.194;5.112;2023-07-13T10:02:39;12.02;;;2.83;;
49828;SDS011;35723;51.194;5.112;2023-07-13T10:05:05;14.80;;;2.83;;
49828;SDS011;35723;51.194;5.112;2023-07-13T10:07:39;12.57;;;3.00;;
49828;SDS011;35723;51.194;5.112;2023-07-13T10:10:16;13.57;;;3.10;;
49828;SDS011;35723;51.194;5.112;2023-07-13T10:12:45;14.10;;;3.08;;
49828;SDS011;35723;51.194;5.112;2023-07-13T10:15:15;19.15;;;3.67;;
49828;SDS011;35723;51.194;5.112;2023-07-13T10:17:43;12.60;;;2.92;;
49828;SDS011;35723;51.194;5.112;2023-07-13T10:20:09;14.65;;;3.05;;
49828;SDS011;35723;51.194;5.112;2023-07-13T10:25:36;18.88;;;3.75;;
49828;SDS011;35723;51.194;5.112;2023-07-13T10:28:10;11.02;;;2.97;;
49828;SDS011;35723;51.194;5.112;2023-07-13T10:30:52;14.38;;;3.10;;
49828;SDS011;35723;51.194;5.112;2023-07-13T10:33:19;13.38;;;3.28;;
49828;SDS011;35723;51.194;5.112;2023-07-13T10:35:47;12.20;;;3.08;;
49828;SDS011;35723;51.194;5.112;2023-07-13T10:38:19;14.10;;;3.28;;
49828;SDS011;35723;51.194;5.112;2023-07-13T10:40:58;14.57;;;3.20;;
49828;SDS011;35723;51.194;5.112;2023-07-13T10:43:33;13.30;;;2.85;;
49828;SDS011;35723;51.194;5.112;2023-07-13T10:46:13;9.55;;;2.58;;
49828;SDS011;35723;51.194;5.112;2023-07-13T10:48:40;10.57;;;2.80;;
49828;SDS011;35723;51.194;5.112;2023-07-13T10:51:10;10.50;;;2.90;;
49828;SDS011;35723;51.194;5.112;2023-07-13T10:53:38;11.52;;;2.90;;
49828;SDS011;35723;51.194;5.112;2023-07-13T10:58:41;11.30;;;2.90;;
49828;SDS011;35723;51.194;5.112;2023-07-13T11:01:09;9.52;;;2.65;;
49828;SDS011;35723;51.194;5.112;2023-07-13T11:03:37;8.80;;;2.53;;
49828;SDS011;35723;51.194;5.112;2023-07-13T11:09:39;17.23;;;3.42;;
49828;SDS011;35723;51.194;5.112;2023-07-13T11:12:01;13.35;;;3.05;;
49828;SDS011;35723;51.194;5.112;2023-07-13T11:14:42;13.60;;;3.22;;
49828;SDS011;35723;51.194;5.112;2023-07-13T11:17:23;15.13;;;3.53;;
49828;SDS011;35723;51.194;5.112;2023-07-13T11:20:10;13.07;;;3.25;;
49828;SDS011;35723;51.194;5.112;2023-07-13T11:27:52;10.57;;;3.05;;
49828;SDS011;35723;51.194;5.112;2023-07-13T11:30:35;10.77;;;2.95;;
49828;SDS011;35723;51.194;5.112;2023-07-13T11:33:03;12.75;;;3.03;;
49828;SDS011;35723;51.194;5.112;2023-07-13T11:35:49;13.32;;;3.03;;
49828;SDS011;35723;51.194;5.112;2023-07-13T11:38:31;12.05;;;3.00;;
49828;SDS011;35723;51.194;5.112;2023-07-13T11:41:24;12.27;;;3.10;;
49828;SDS011;35723;51.194;5.112;2023-07-13T11:43:53;15.20;;;2.80;;
49828;SDS011;35723;51.194;5.112;2023-07-13T11:46:22;12.15;;;2.75;;
49828;SDS011;35723;51.194;5.112;2023-07-13T11:48:50;9.13;;;2.90;;
49828;SDS011;35723;51.194;5.112;2023-07-13T11:51:23;10.57;;;2.80;;
49828;SDS011;35723;51.194;5.112;2023-07-13T11:54:00;7.38;;;2.60;;
49828;SDS011;35723;51.194;5.112;2023-07-13T11:56:47;12.93;;;2.85;;
49828;SDS011;35723;51.194;5.112;2023-07-13T11:59:14;12.50;;;2.90;;
49828;SDS011;35723;51.194;5.112;2023-07-13T12:01:44;10.20;;;2.80;;
49828;SDS011;35723;51.194;5.112;2023-07-13T12:04:24;12.05;;;2.80;;
49828;SDS011;35723;51.194;5.112;2023-07-13T12:07:14;11.02;;;2.60;;
49828;SDS011;35723;51.194;5.112;2023-07-13T12:09:42;13.02;;;2.70;;
49828;SDS011;35723;51.194;5.112;2023-07-13T12:12:11;11.00;;;2.58;;
49828;SDS011;35723;51.194;5.112;2023-07-13T12:14:39;10.40;;;3.00;;
49828;SDS011;35723;51.194;5.112;2023-07-13T12:17:16;12.02;;;2.90;;
49828;SDS011;35723;51.194;5.112;2023-07-13T12:19:47;10.23;;;2.88;;
49828;SDS011;35723;51.194;5.112;2023-07-13T12:22:14;9.48;;;2.80;;
49828;SDS011;35723;51.194;5.112;2023-07-13T12:24:41;13.27;;;3.42;;
49828;SDS011;35723;51.194;5.112;2023-07-13T12:27:21;18.10;;;4.18;;
49828;SDS011;35723;51.194;5.112;2023-07-13T12:30:01;16.30;;;3.55;;
49828;SDS011;35723;51.194;5.112;2023-07-13T12:32:30;16.80;;;3.83;;
49828;SDS011;35723;51.194;5.112;2023-07-13T12:35:12;15.35;;;3.90;;
49828;SDS011;35723;51.194;5.112;2023-07-13T12:37:43;13.07;;;4.30;;
49828;SDS011;35723;51.194;5.112;2023-07-13T12:40:18;16.25;;;4.50;;
49828;SDS011;35723;51.194;5.112;2023-07-13T12:42:47;17.10;;;4.50;;
49828;SDS011;35723;51.194;5.112;2023-07-13T12:45:21;18.60;;;4.10;;
49828;SDS011;35723;51.194;5.112;2023-07-13T12:48:03;11.93;;;3.58;;
49828;SDS011;35723;51.194;5.112;2023-07-13T12:50:37;11.30;;;3.40;;
49828;SDS011;35723;51.194;5.112;2023-07-13T12:53:14;8.52;;;3.10;;
49828;SDS011;35723;51.194;5.112;2023-07-13T12:55:53;8.65;;;3.20;;
49828;SDS011;35723;51.194;5.112;2023-07-13T12:58:28;9.23;;;2.95;;
49828;SDS011;35723;51.194;5.112;2023-07-13T13:00:57;8.55;;;2.70;;
49828;SDS011;35723;51.194;5.112;2023-07-13T13:03:29;6.35;;;2.72;;
49828;SDS011;35723;51.194;5.112;2023-07-13T13:06:00;10.00;;;3.20;;
49828;SDS011;35723;51.194;5.112;2023-07-13T13:08:29;8.55;;;3.05;;
49828;SDS011;35723;51.194;5.112;2023-07-13T13:10:58;11.57;;;3.10;;
49828;SDS011;35723;51.194;5.112;2023-07-13T13:13:24;11.05;;;3.47;;
49828;SDS011;35723;51.194;5.112;2023-07-13T13:15:50;8.15;;;3.15;;
49828;SDS011;35723;51.194;5.112;2023-07-13T13:18:18;10.70;;;3.20;;
49828;SDS011;35723;51.194;5.112;2023-07-13T13:20:45;11.05;;;3.28;;
49828;SDS011;35723;51.194;5.112;2023-07-13T13:23:15;13.48;;;3.47;;
49828;SDS011;35723;51.194;5.112;2023-07-13T13:25:47;9.43;;;3.40;;
49828;SDS011;35723;51.194;5.112;2023-07-13T13:28:15;12.93;;;3.60;;
49828;SDS011;35723;51.194;5.112;2023-07-13T13:30:43;8.18;;;3.00;;
49828;SDS011;35723;51.194;5.112;2023-07-13T13:33:11;8.98;;;3.05;;
49828;SDS011;35723;51.194;5.112;2023-07-13T13:35:37;9.82;;;3.00;;
49828;SDS011;35723;51.194;5.112;2023-07-13T13:38:13;9.60;;;3.17;;
49828;SDS011;35723;51.194;5.112;2023-07-13T13:40:41;10.80;;;2.80;;
49828;SDS011;35723;51.194;5.112;2023-07-13T13:43:13;6.13;;;2.80;;
49828;SDS011;35723;51.194;5.112;2023-07-13T13:45:43;9.55;;;2.70;;
49828;SDS011;35723;51.194;5.112;2023-07-13T13:48:14;7.30;;;2.60;;
49828;SDS011;35723;51.194;5.112;2023-07-13T13:50:44;5.57;;;2.65;;
49828;SDS011;35723;51.194;5.112;2023-07-13T13:53:11;8.75;;;2.35;;
49828;SDS011;35723;51.194;5.112;2023-07-13T13:55:38;7.43;;;2.55;;
49828;SDS011;35723;51.194;5.112;2023-07-13T13:58:06;9.18;;;2.60;;
49828;SDS011;35723;51.194;5.112;2023-07-13T14:00:33;7.50;;;2.20;;
49828;SDS011;35723;51.194;5.112;2023-07-13T14:02:59;6.65;;;2.40;;
49828;SDS011;35723;51.194;5.112;2023-07-13T14:05:25;9.93;;;2.63;;
49828;SDS011;35723;51.194;5.112;2023-07-13T14:07:51;8.05;;;2.50;;
49828;SDS011;35723;51.194;5.112;2023-07-13T14:10:18;10.70;;;2.95;;
49828;SDS011;35723;51.194;5.112;2023-07-13T14:12:52;9.23;;;2.65;;
49828;SDS011;35723;51.194;5.112;2023-07-13T14:15:28;8.90;;;2.58;;
49828;SDS011;35723;51.194;5.112;2023-07-13T14:17:56;12.00;;;2.85;;
49828;SDS011;35723;51.194;5.112;2023-07-13T14:20:23;7.50;;;2.50;;
49828;SDS011;35723;51.194;5.112;2023-07-13T14:22:51;6.57;;;2.35;;
49828;SDS011;35723;51.194;5.112;2023-07-13T14:25:17;6.32;;;2.67;;
49828;SDS011;35723;51.194;5.112;2023-07-13T14:27:45;8.65;;;2.60;;
49828;SDS011;35723;51.194;5.112;2023-07-13T14:30:14;6.55;;;2.10;;
49828;SDS011;35723;51.194;5.112;2023-07-13T14:32:42;8.57;;;2.50;;
49828;SDS011;35723;51.194;5.112;2023-07-13T14:35:11;6.85;;;2.30;;
49828;SDS011;35723;51.194;5.112;2023-07-13T14:37:39;7.55;;;2.35;;
49828;SDS011;35723;51.194;5.112;2023-07-13T14:40:15;5.90;;;2.33;;
49828;SDS011;35723;51.194;5.112;2023-07-13T14:42:42;8.48;;;2.60;;
49828;SDS011;35723;51.194;5.112;2023-07-13T14:45:15;7.60;;;2.50;;
49828;SDS011;35723;51.194;5.112;2023-07-13T14:47:43;7.57;;;2.22;;
49828;SDS011;35723;51.194;5.112;2023-07-13T14:50:20;5.70;;;2.40;;
49828;SDS011;35723;51.194;5.112;2023-07-13T14:52:49;7.22;;;2.50;;
49828;SDS011;35723;51.194;5.112;2023-07-13T14:55:17;6.20;;;2.30;;
49828;SDS011;35723;51.194;5.112;2023-07-13T14:57:43;4.93;;;2.13;;
49828;SDS011;35723;51.194;5.112;2023-07-13T15:02:41;9.07;;;2.50;;
49828;SDS011;35723;51.194;5.112;2023-07-13T15:05:12;7.55;;;2.40;;
49828;SDS011;35723;51.194;5.112;2023-07-13T15:07:43;7.20;;;2.38;;
49828;SDS011;35723;51.194;5.112;2023-07-13T15:10:16;7.32;;;2.60;;
49828;SDS011;35723;51.194;5.112;2023-07-13T15:12:46;7.38;;;2.20;;
49828;SDS011;35723;51.194;5.112;2023-07-13T15:15:12;8.25;;;2.40;;
49828;SDS011;35723;51.194;5.112;2023-07-13T15:17:42;6.30;;;2.17;;
49828;SDS011;35723;51.194;5.112;2023-07-13T15:22:44;8.88;;;2.55;;